Time;durP1;ratioP1;P1;durP2;ratioP2;P2;SDS_P1;SDS_P2;PMS_P1;PMS_P2;Temp;Humidity;BMP_temperature;BMP_pressure;BME280_temperature;BME280_humidity;BME280_pressure;Samples;Min_cycle;Max_cycle;Signal;HPM_P1;HPM_P2
2021/01/25 00:00:56;;;;;;;2.17;2.00;;;2.10;90.00;;;;;;6291689;28;20478;-77
2021/01/25 00:03:57;;;;;;;2.38;1.83;;;2.00;89.50;;;;;;6292984;28;20028;-77
2021/01/25 00:06:58;;;;;;;2.55;2.33;;;1.90;90.00;;;;;;6292117;28;20024;-77
2021/01/25 00:09:59;;;;;;;2.25;2.05;;;1.40;90.00;;;;;;6292883;28;20036;-77
2021/01/25 00:13:00;;;;;;;2.67;2.05;;;0.70;90.20;;;;;;6291614;28;20518;-78
2021/01/25 00:16:00;;;;;;;2.90;2.25;;;0.80;89.80;;;;;;6292938;28;20029;-77
2021/01/25 00:19:01;;;;;;;2.28;2.08;;;1.00;89.70;;;;;;6291322;28;20064;-77
2021/01/25 00:22:01;;;;;;;2.83;2.22;;;0.90;90.10;;;;;;6293066;28;20358;-77
2021/01/25 00:25:02;;;;;;;3.72;2.30;;;1.50;90.30;;;;;;6275106;28;20028;-78
2021/01/25 00:28:03;;;;;;;2.10;1.90;;;0.70;90.10;;;;;;6291706;28;20028;-77
2021/01/25 00:31:04;;;;;;;2.47;2.03;;;0.80;90.00;;;;;;6293794;28;20041;-77
2021/01/25 00:34:04;;;;;;;2.17;1.95;;;1.00;90.20;;;;;;6274574;28;20473;-77
2021/01/25 00:37:05;;;;;;;2.55;1.52;;;2.10;90.60;;;;;;6292035;28;20081;-77
2021/01/25 00:40:06;;;;;;;1.90;1.80;;;0.80;90.70;;;;;;6291879;28;20088;-77
2021/01/25 00:43:07;;;;;;;3.00;1.92;;;0.80;90.40;;;;;;6291529;28;20078;-78
2021/01/25 00:46:07;;;;;;;2.15;1.90;;;0.80;91.00;;;;;;6274713;28;20021;-78
2021/01/25 00:49:08;;;;;;;2.75;1.80;;;0.70;91.60;;;;;;6274556;28;20089;-77
2021/01/25 00:52:08;;;;;;;2.70;1.80;;;1.30;92.30;;;;;;6292728;28;20143;-78
2021/01/25 00:55:11;;;;;;;4.03;2.40;;;0.70;93.40;;;;;;6292421;28;20023;-77
2021/01/25 00:58:11;;;;;;;4.07;2.38;;;0.60;93.30;;;;;;6291276;28;20038;-77
2021/01/25 01:01:12;;;;;;;2.40;2.20;;;0.60;93.80;;;;;;6274146;28;20094;-77
2021/01/25 01:04:12;;;;;;;2.80;1.95;;;0.60;94.00;;;;;;6274472;28;20544;-77
2021/01/25 01:07:13;;;;;;;2.20;2.00;;;1.20;94.70;;;;;;6274523;28;20086;-77
2021/01/25 01:10:13;;;;;;;2.70;2.30;;;1.30;95.00;;;;;;6292361;28;20035;-77
2021/01/25 01:13:14;;;;;;;2.30;2.10;;;0.70;94.90;;;;;;6290868;28;20051;-77
2021/01/25 01:16:15;;;;;;;3.72;2.28;;;2.20;95.10;;;;;;6292382;28;20055;-77
2021/01/25 01:19:15;;;;;;;2.53;2.25;;;1.00;94.90;;;;;;6290889;28;20107;-77
2021/01/25 01:22:16;;;;;;;2.70;2.15;;;0.60;95.00;;;;;;6274747;28;20036;-77
2021/01/25 01:25:16;;;;;;;2.67;2.00;;;1.80;95.20;;;;;;6296789;28;20020;-77
2021/01/25 01:28:17;;;;;;;1.80;1.70;;;1.70;95.20;;;;;;6295334;28;20516;-77
2021/01/25 01:31:18;;;;;;;1.95;1.77;;;1.50;95.30;;;;;;6297087;28;20031;-77
2021/01/25 01:34:18;;;;;;;1.88;1.77;;;1.90;95.70;;;;;;6295176;28;20467;-78
2021/01/25 01:37:19;;;;;;;2.30;1.88;;;2.10;95.80;;;;;;6295345;28;20017;-77
2021/01/25 01:40:19;;;;;;;1.83;1.73;;;2.30;95.60;;;;;;6296374;28;20480;-77
2021/01/25 01:43:20;;;;;;;2.17;2.00;;;1.00;95.20;;;;;;6278871;28;20020;-77
2021/01/25 01:46:20;;;;;;;2.03;1.83;;;1.40;95.20;;;;;;6294908;28;20033;-77
2021/01/25 01:49:21;;;;;;;3.83;2.22;;;0.60;95.30;;;;;;6294884;28;20477;-77
2021/01/25 01:52:22;;;;;;;2.42;2.22;;;2.20;95.80;;;;;;6278367;28;20056;-77
2021/01/25 01:55:22;;;;;;;2.92;2.40;;;1.50;95.80;;;;;;6278095;28;20100;-77
2021/01/25 01:58:23;;;;;;;2.38;2.10;;;1.90;96.00;;;;;;6261855;28;20029;-78
2021/01/25 02:01:24;;;;;;;2.20;2.00;;;0.70;95.80;;;;;;6294495;28;20047;-77
2021/01/25 02:04:24;;;;;;;2.03;1.90;;;0.80;95.90;;;;;;6294636;28;20028;-77
2021/01/25 02:07:25;;;;;;;2.47;2.22;;;1.20;95.90;;;;;;6294425;28;20031;-77
2021/01/25 02:10:26;;;;;;;2.53;2.30;;;2.20;96.30;;;;;;6277933;28;20449;-78
2021/01/25 02:13:27;;;;;;;4.30;2.28;;;0.80;95.80;;;;;;6294323;28;20406;-77
2021/01/25 02:16:27;;;;;;;2.50;2.30;;;1.90;96.00;;;;;;6294346;28;20021;-77
2021/01/25 02:19:44;;;;;;;3.20;1.92;;;0.70;95.60;;;;;;6294482;28;20510;-77
2021/01/25 02:22:50;;;;;;;2.30;2.10;;;0.70;95.10;;;;;;6295551;28;20036;-77
2021/01/25 02:26:04;;;;;;;2.15;1.70;;;0.70;95.00;;;;;;6295411;28;20028;-76
2021/01/25 02:29:05;;;;;;;3.08;2.10;;;2.00;95.70;;;;;;6294240;28;20040;-77
2021/01/25 02:32:05;;;;;;;2.60;2.00;;;0.80;95.30;;;;;;6277259;28;20463;-77
2021/01/25 02:35:09;;;;;;;2.17;1.90;;;1.00;95.40;;;;;;6293616;28;20031;-77
2021/01/25 02:38:10;;;;;;;2.13;1.92;;;0.80;95.10;;;;;;6295253;28;20016;-77
2021/01/25 02:41:10;;;;;;;1.83;1.73;;;1.40;95.40;;;;;;6277016;28;20114;-77
2021/01/25 02:44:11;;;;;;;3.17;2.10;;;0.80;95.20;;;;;;6277338;28;20389;-77
2021/01/25 02:47:12;;;;;;;1.70;1.60;;;2.30;95.40;;;;;;6277011;28;20033;-77
2021/01/25 02:50:12;;;;;;;2.10;1.95;;;0.80;94.80;;;;;;6276950;28;20038;-77
2021/01/25 02:53:13;;;;;;;2.13;2.00;;;0.90;93.80;;;;;;6276910;28;20350;-77
2021/01/25 02:56:14;;;;;;;3.33;1.88;;;1.00;93.30;;;;;;6293579;28;20075;-77
2021/01/25 02:59:15;;;;;;;2.85;2.00;;;2.20;93.50;;;;;;6276323;28;20032;-77
2021/01/25 03:02:16;;;;;;;2.95;1.92;;;1.40;92.90;;;;;;6294272;28;20390;-77
2021/01/25 03:05:16;;;;;;;3.13;1.80;;;1.20;92.80;;;;;;6293483;28;20029;-77
2021/01/25 03:08:17;;;;;;;1.80;1.70;;;1.20;92.90;;;;;;6293415;28;20025;-77
2021/01/25 03:11:19;;;;;;;2.00;1.80;;;1.90;92.80;;;;;;6260149;28;20482;-77
2021/01/25 03:14:20;;;;;;;2.17;1.98;;;1.40;92.70;;;;;;6276411;28;20028;-77
2021/01/25 03:17:20;;;;;;;2.20;2.00;;;2.40;92.80;;;;;;6276263;28;20485;-77
2021/01/25 03:20:21;;;;;;;1.42;1.42;;;1.30;92.20;;;;;;6294674;28;20036;-77
2021/01/25 03:23:22;;;;;;;1.38;1.27;;;2.70;92.30;;;;;;6292832;28;20062;-76
2021/01/25 03:26:22;;;;;;;1.33;1.23;;;1.70;92.30;;;;;;6276041;28;20028;-77
2021/01/25 03:29:23;;;;;;;2.15;1.67;;;2.60;92.60;;;;;;6293866;28;20066;-77
2021/01/25 03:32:23;;;;;;;2.90;1.48;;;1.90;92.40;;;;;;6292837;28;20047;-77
2021/01/25 03:35:24;;;;;;;1.45;1.15;;;2.80;92.60;;;;;;6293800;28;20035;-77
2021/01/25 03:38:25;;;;;;;0.98;0.98;;;1.40;92.30;;;;;;6293863;28;20033;-76
2021/01/25 03:41:26;;;;;;;1.15;1.13;;;2.70;92.30;;;;;;6291881;28;20057;-77
2021/01/25 03:44:26;;;;;;;1.65;1.55;;;1.50;91.90;;;;;;6292095;28;20024;-77
2021/01/25 03:47:27;;;;;;;1.25;1.15;;;2.30;91.80;;;;;;6291662;28;20033;-77
2021/01/25 03:50:27;;;;;;;3.65;1.55;;;1.90;91.50;;;;;;6293060;28;20158;-77
2021/01/25 03:53:28;;;;;;;1.35;1.25;;;1.10;99.90;;;;;;6291866;28;20032;-77
2021/01/25 03:56:28;;;;;;;1.55;1.10;;;1.60;99.90;;;;;;6292024;28;20017;-77
2021/01/25 03:59:32;;;;;;;1.40;1.30;;;1.50;99.90;;;;;;6293181;28;20067;-77
2021/01/25 04:02:33;;;;;;;1.15;1.15;;;1.50;99.90;;;;;;6292000;28;20043;-76
2021/01/25 04:05:33;;;;;;;1.02;0.98;;;2.30;98.30;;;;;;6291719;28;20029;-76
2021/01/25 04:08:34;;;;;;;1.10;1.10;;;1.60;97.80;;;;;;6293135;28;20020;-76
2021/01/25 04:11:35;;;;;;;1.75;1.20;;;1.60;99.90;;;;;;6293287;28;20056;-76
2021/01/25 04:14:35;;;;;;;1.45;1.35;;;1.90;97.90;;;;;;6293611;28;20043;-76
2021/01/25 04:17:37;;;;;;;2.08;1.10;;;1.60;97.80;;;;;;6292995;28;20040;-77
2021/01/25 04:20:38;;;;;;;1.30;1.20;;;;;;;;;;6291487;28;20028;-76
2021/01/25 04:23:39;;;;;;;1.08;1.08;;;1.60;99.90;;;;;;6292909;28;20585;-77
2021/01/25 04:26:41;;;;;;;1.60;1.50;;;1.80;99.90;;;;;;6292781;28;20035;-77
2021/01/25 04:29:42;;;;;;;0.90;0.90;;;1.80;99.90;;;;;;6292953;28;20025;-77
2021/01/25 04:32:43;;;;;;;1.95;1.23;;;;;;;;;;6275249;28;20035;-77
2021/01/25 04:35:44;;;;;;;0.93;0.93;;;1.70;99.90;;;;;;6292675;28;20458;-77
2021/01/25 04:38:45;;;;;;;1.42;1.33;;;;;;;;;;6291946;28;20025;-77
2021/01/25 04:41:46;;;;;;;1.48;1.42;;;1.50;99.90;;;;;;6292915;28;20052;-76
2021/01/25 04:44:46;;;;;;;1.10;1.10;;;1.40;99.90;;;;;;6275244;28;20103;-77
2021/01/25 04:47:47;;;;;;;2.40;2.05;;;1.40;99.90;;;;;;6292806;28;20043;-77
2021/01/25 04:50:49;;;;;;;4.00;2.10;;;1.50;97.80;;;;;;6291533;28;20451;-77
2021/01/25 04:53:50;;;;;;;1.80;1.70;;;;;;;;;;6291334;28;20441;-76
2021/01/25 04:56:51;;;;;;;2.90;2.17;;;1.50;96.70;;;;;;6292967;28;20027;-77
2021/01/25 04:59:51;;;;;;;2.20;1.10;;;2.50;98.60;;;;;;6279578;28;20036;-77
2021/01/25 05:02:52;;;;;;;3.35;2.30;;;2.60;93.40;;;;;;6296273;28;20158;-77
2021/01/25 05:05:53;;;;;;;2.70;2.10;;;3.00;93.90;;;;;;6279418;28;20029;-76
2021/01/25 05:08:53;;;;;;;4.32;2.58;;;2.50;93.80;;;;;;6295871;28;20016;-76
2021/01/25 05:12:01;;;;;;;1.17;1.10;;;0.90;93.50;;;;;;6262901;28;20112;-77
2021/01/25 05:15:02;;;;;;;1.27;1.20;;;1.40;93.30;;;;;;6279894;28;20028;-77
2021/01/25 05:18:06;;;;;;;1.05;0.82;;;1.40;94.00;;;;;;6296084;28;20028;-77
2021/01/25 05:21:07;;;;;;;1.13;1.13;;;1.50;94.10;;;;;;6297119;28;20024;-77
2021/01/25 05:24:08;;;;;;;1.60;1.50;;;1.40;94.40;;;;;;6296192;28;20036;-77
2021/01/25 05:27:09;;;;;;;1.15;1.08;;;1.30;94.20;;;;;;6295627;28;20102;-77
2021/01/25 05:30:11;;;;;;;1.25;1.15;;;1.30;94.50;;;;;;6295478;28;20041;-77
2021/01/25 05:33:11;;;;;;;0.93;0.93;;;1.30;94.30;;;;;;6296052;28;20032;-77
2021/01/25 05:36:16;;;;;;;1.60;1.00;;;1.30;94.30;;;;;;6295657;28;20027;-77
2021/01/25 05:39:17;;;;;;;0.98;0.98;;;2.70;94.40;;;;;;6295087;28;20094;-77
2021/01/25 05:42:18;;;;;;;1.02;1.02;;;2.00;94.00;;;;;;6296933;28;20036;-77
2021/01/25 05:45:19;;;;;;;1.20;1.17;;;2.70;94.60;;;;;;6295222;28;20047;-76
2021/01/25 05:48:19;;;;;;;1.48;1.38;;;1.20;94.30;;;;;;6295227;28;20449;-77
2021/01/25 05:51:20;;;;;;;2.22;2.03;;;1.30;94.50;;;;;;6295397;28;20031;-77
2021/01/25 05:54:24;;;;;;;2.33;2.10;;;1.20;94.50;;;;;;6278458;28;20048;-76
2021/01/25 05:57:25;;;;;;;1.95;1.85;;;2.60;95.30;;;;;;6295166;28;20025;-77
2021/01/25 06:00:26;;;;;;;3.17;2.20;;;2.10;95.30;;;;;;6295172;28;20021;-76
2021/01/25 06:03:27;;;;;;;1.77;1.17;;;1.10;95.20;;;;;;6295000;28;20028;-77
2021/01/25 06:06:32;;;;;;;1.10;1.02;;;2.00;95.40;;;;;;6295420;28;20024;-77
2021/01/25 06:09:41;;;;;;;1.23;1.17;;;2.60;95.60;;;;;;6294362;28;20108;-77
2021/01/25 06:12:44;;;;;;;1.20;1.10;;;1.40;95.40;;;;;;6294836;28;20025;-76
2021/01/25 06:15:45;;;;;;;1.50;1.40;;;1.10;95.20;;;;;;6277303;28;20021;-75
2021/01/25 06:18:46;;;;;;;1.10;0.95;;;1.10;95.40;;;;;;6294524;28;20319;-75
2021/01/25 06:21:47;;;;;;;3.42;1.27;;;2.60;95.90;;;;;;6277734;28;20072;-76
2021/01/25 06:24:48;;;;;;;1.15;1.10;;;1.10;95.40;;;;;;6294834;28;20093;-76
2021/01/25 06:27:53;;;;;;;1.17;1.17;;;1.10;95.20;;;;;;6277152;28;20099;-77
2021/01/25 06:30:54;;;;;;;1.30;1.20;;;1.00;95.10;;;;;;6295394;28;20020;-77
2021/01/25 06:34:00;;;;;;;1.40;1.30;;;1.10;95.30;;;;;;6294342;28;20028;-77
2021/01/25 06:37:01;;;;;;;1.30;1.20;;;0.80;99.90;;;;;;6278071;28;20052;-77
2021/01/25 06:40:09;;;;;;;1.90;1.73;;;1.20;99.90;;;;;;6295211;28;20181;-77
2021/01/25 06:43:15;;;;;;;1.48;1.38;;;0.90;94.70;;;;;;6276063;28;20074;-81
2021/01/25 06:46:20;;;;;;;2.08;1.10;;;1.10;94.20;;;;;;6277166;28;20031;-76
2021/01/25 06:49:20;;;;;;;1.95;1.20;;;2.80;94.90;;;;;;6294088;28;20546;-76
2021/01/25 06:52:21;;;;;;;2.85;1.55;;;1.10;94.40;;;;;;6275926;28;20025;-79
2021/01/25 06:55:22;;;;;;;3.13;1.30;;;1.10;94.40;;;;;;6293004;28;20327;-77
2021/01/25 06:58:26;;;;;;;2.38;1.70;;;1.40;97.00;;;;;;6294062;28;20032;-75
2021/01/25 07:01:27;;;;;;;1.90;1.73;;;2.30;96.90;;;;;;6294585;28;20051;-77
2021/01/25 07:04:29;;;;;;;3.80;2.40;;;1.20;99.90;;;;;;6276795;28;20115;-77
2021/01/25 07:07:30;;;;;;;2.73;2.33;;;1.40;99.90;;;;;;6293013;28;20058;-77
2021/01/25 07:10:32;;;;;;;3.03;2.40;;;1.60;98.70;;;;;;6293410;28;20114;-77
2021/01/25 07:13:36;;;;;;;4.23;2.80;;;1.20;99.90;;;;;;6292327;28;20028;-76
2021/01/25 07:16:36;;;;;;;6.18;2.22;;;1.60;98.40;;;;;;6276694;28;20082;-78
2021/01/25 07:19:37;;;;;;;2.70;2.50;;;1.20;98.30;;;;;;6291196;28;20501;-78
2021/01/25 07:22:38;;;;;;;2.65;2.10;;;1.20;99.90;;;;;;6290198;28;20040;-81
2021/01/25 07:25:38;;;;;;;2.88;2.05;;;1.70;98.20;;;;;;6274614;28;20032;-78
2021/01/25 07:28:39;;;;;;;2.25;2.05;;;2.90;98.60;;;;;;6274905;28;20032;-80
2021/01/25 07:31:40;;;;;;;2.38;2.17;;;2.50;94.40;;;;;;6258162;28;20059;-79
2021/01/25 07:34:43;;;;;;;6.72;4.50;;;2.20;94.00;;;;;;6275436;28;20102;-80
2021/01/25 07:37:43;;;;;;;3.72;2.95;;;1.90;93.50;;;;;;6275848;28;20028;-80
2021/01/25 07:40:44;;;;;;;2.60;2.40;;;1.40;93.40;;;;;;6290600;28;20139;-80
2021/01/25 07:43:45;;;;;;;2.88;2.08;;;3.20;94.00;;;;;;6274813;28;20120;-77
2021/01/25 07:46:47;;;;;;;3.75;2.17;;;3.00;94.10;;;;;;6273086;28;20024;-80
2021/01/25 07:49:48;;;;;;;1.75;1.58;;;1.80;94.10;;;;;;6273656;28;20494;-79
2021/01/25 07:53:07;;;;;;;1.83;1.73;;;3.50;91.00;;;;;;6258924;28;20040;-79
2021/01/25 07:56:13;;;;;;;1.98;1.73;;;2.30;90.60;;;;;;6275745;28;20074;-80
2021/01/25 07:59:17;;;;;;;2.58;1.67;;;2.70;90.30;;;;;;6292386;28;20036;-79
2021/01/25 08:02:19;;;;;;;3.80;1.77;;;2.60;90.00;;;;;;6275845;28;20390;-79
2021/01/25 08:05:20;;;;;;;8.23;2.30;;;2.10;90.00;;;;;;6292311;28;20028;-80
2021/01/25 08:08:20;;;;;;;2.50;2.00;;;2.10;88.10;;;;;;6275246;28;20471;-80
2021/01/25 08:11:21;;;;;;;5.45;1.60;;;3.10;89.50;;;;;;6275620;28;20104;-79
2021/01/25 08:14:24;;;;;;;2.88;2.10;;;2.30;88.10;;;;;;6291895;28;20062;-80
2021/01/25 08:17:30;;;;;;;5.40;2.92;;;3.10;89.60;;;;;;6293434;28;20039;-80
2021/01/25 08:20:31;;;;;;;3.10;1.80;;;2.20;89.10;;;;;;6275511;28;20094;-79
2021/01/25 08:23:39;;;;;;;3.07;1.90;;;2.40;89.30;;;;;;6274730;28;20071;-80
2021/01/25 08:26:39;;;;;;;2.65;2.10;;;4.00;89.30;;;;;;6275515;28;20025;-80
2021/01/25 08:29:40;;;;;;;3.90;2.10;;;3.10;90.20;;;;;;6292955;28;20050;-79
2021/01/25 08:32:42;;;;;;;2.67;1.90;;;2.10;99.90;;;;;;6274784;28;20016;-79
2021/01/25 08:35:48;;;;;;;4.27;2.70;;;2.20;99.90;;;;;;6291857;28;20043;-81
2021/01/25 08:38:49;;;;;;;2.40;2.00;;;2.10;99.90;;;;;;6288226;28;20632;-76
2021/01/25 08:41:52;;;;;;;2.75;1.98;;;2.30;99.90;;;;;;6289621;28;20045;-80
2021/01/25 08:44:56;;;;;;;2.60;1.85;;;2.20;93.70;;;;;;6290752;28;20037;-79
2021/01/25 08:48:07;;;;;;;3.60;2.20;;;2.50;94.10;;;;;;6274278;28;20055;-80
2021/01/25 08:51:16;;;;;;;1.90;1.80;;;2.20;87.70;;;;;;6274128;28;20313;-79
2021/01/25 08:54:39;;;;;;;2.50;2.13;;;2.20;87.60;;;;;;6274698;28;20469;-78
2021/01/25 08:57:40;;;;;;;;;;;2.10;93.00;;;;;;6277223;28;20111;-76
2021/01/25 09:00:43;;;;;;;3.92;2.47;;;2.30;99.90;;;;;;6291341;28;19920;-79
2021/01/25 09:03:44;;;;;;;3.75;2.00;;;;;;;;;;6290651;28;20032;-77
2021/01/25 09:06:52;;;;;;;2.67;1.70;;;2.20;99.90;;;;;;6290688;28;20021;-77
2021/01/25 09:09:53;;;;;;;3.50;2.13;;;;;;;;;;6257660;28;20111;-77
2021/01/25 09:12:54;;;;;;;3.67;2.10;;;;;;;;;;6290392;28;20017;-78
2021/01/25 09:15:55;;;;;;;4.07;2.13;;;2.40;99.90;;;;;;6290733;28;20071;-77
2021/01/25 09:18:55;;;;;;;5.30;4.00;;;2.80;99.90;;;;;;6291999;28;20027;-77
2021/01/25 09:21:56;;;;;;;2.65;2.03;;;2.10;99.90;;;;;;6291767;28;20093;-77
2021/01/25 09:24:57;;;;;;;5.25;3.22;;;2.10;94.80;;;;;;6273688;28;20035;-78
2021/01/25 09:27:58;;;;;;;4.10;2.33;;;2.70;94.60;;;;;;6290996;28;20044;-82
2021/01/25 09:30:58;;;;;;;5.03;2.53;;;3.20;89.20;;;;;;6289800;28;20028;-77
2021/01/25 09:33:59;;;;;;;4.05;2.15;;;2.60;88.00;;;;;;6289808;28;20016;-79
2021/01/25 09:37:02;;;;;;;3.53;2.05;;;3.50;88.20;;;;;;6288681;28;20581;-77
2021/01/25 09:40:07;;;;;;;4.85;3.50;;;2.50;86.40;;;;;;6289826;28;20415;-77
2021/01/25 09:43:08;;;;;;;5.35;2.83;;;2.60;86.30;;;;;;6292710;28;20506;-77
2021/01/25 09:46:09;;;;;;;3.08;2.42;;;2.40;87.00;;;;;;6277648;28;20042;-78
2021/01/25 09:49:10;;;;;;;5.50;2.15;;;2.70;86.90;;;;;;6278596;28;20028;-78
2021/01/25 09:52:10;;;;;;;2.60;2.00;;;3.10;85.90;;;;;;6294643;28;20108;-80
2021/01/25 09:55:11;;;;;;;4.28;2.67;;;3.00;85.50;;;;;;6278800;28;20366;-76
2021/01/25 09:58:12;;;;;;;6.25;3.03;;;3.10;84.80;;;;;;6278571;28;20020;-77
2021/01/25 10:01:13;;;;;;;8.00;4.70;;;3.10;83.90;;;;;;6295125;28;20051;-77
2021/01/25 10:04:13;;;;;;;7.70;4.25;;;3.60;83.40;;;;;;6296303;28;20031;-78
2021/01/25 10:07:14;;;;;;;2.60;2.38;;;3.50;83.10;;;;;;6277937;28;20093;-77
2021/01/25 10:10:15;;;;;;;2.30;2.10;;;3.70;82.30;;;;;;6261802;28;20044;-76
2021/01/25 10:13:16;;;;;;;3.42;2.25;;;3.80;80.90;;;;;;6293788;28;20554;-76
2021/01/25 10:16:16;;;;;;;3.83;3.00;;;4.20;78.80;;;;;;6295848;28;20047;-76
2021/01/25 10:19:17;;;;;;;5.38;3.00;;;4.50;78.50;;;;;;6296034;28;20063;-76
2021/01/25 10:22:18;;;;;;;4.85;3.35;;;4.50;78.10;;;;;;6295050;28;20051;-76
2021/01/25 10:25:18;;;;;;;8.25;5.10;;;5.00;77.60;;;;;;6293340;28;20031;-76
2021/01/25 10:28:20;;;;;;;3.17;2.38;;;4.50;77.50;;;;;;6294437;28;20029;-77
2021/01/25 10:31:21;;;;;;;4.10;3.40;;;4.50;78.80;;;;;;6295436;28;20028;-77
2021/01/25 10:34:21;;;;;;;4.90;3.08;;;4.90;78.10;;;;;;6294149;28;20399;-76
2021/01/25 10:37:22;;;;;;;3.28;2.72;;;4.40;79.30;;;;;;6294344;28;20060;-76
2021/01/25 10:40:22;;;;;;;6.20;3.33;;;4.50;78.30;;;;;;6295312;28;20049;-76
2021/01/25 10:43:23;;;;;;;3.55;2.17;;;4.00;79.80;;;;;;6294011;28;20064;-76
2021/01/25 10:46:24;;;;;;;2.35;2.15;;;4.40;78.30;;;;;;6277229;28;20467;-76
2021/01/25 10:49:24;;;;;;;4.53;2.92;;;3.90;78.40;;;;;;6293941;28;20029;-77
2021/01/25 10:52:25;;;;;;;2.15;1.95;;;4.30;78.60;;;;;;6293371;28;20462;-76
2021/01/25 10:55:25;;;;;;;2.92;2.08;;;4.50;78.00;;;;;;6260392;28;20024;-77
2021/01/25 10:58:26;;;;;;;2.33;2.13;;;4.00;77.80;;;;;;6295216;28;20153;-76
2021/01/25 11:01:26;;;;;;;2.20;2.00;;;4.70;77.60;;;;;;6294755;28;20098;-77
2021/01/25 11:04:27;;;;;;;2.33;2.13;;;4.20;77.30;;;;;;6295261;28;20063;-76
2021/01/25 11:07:28;;;;;;;3.17;2.40;;;4.40;77.10;;;;;;6293400;28;20028;-74
2021/01/25 11:10:28;;;;;;;3.55;2.20;;;4.20;76.30;;;;;;6291521;28;20124;-75
2021/01/25 11:13:29;;;;;;;2.67;2.03;;;4.40;76.50;;;;;;6293419;28;20032;-75
2021/01/25 11:16:29;;;;;;;3.17;1.95;;;4.80;75.20;;;;;;6292590;28;20359;-73
2021/01/25 11:19:30;;;;;;;2.75;1.98;;;6.10;72.80;;;;;;6294208;28;20386;-75
2021/01/25 11:22:31;;;;;;;2.10;1.75;;;5.80;71.20;;;;;;6292615;28;20048;-73
2021/01/25 11:25:31;;;;;;;2.33;2.13;;;6.20;70.90;;;;;;6293788;28;20032;-75
2021/01/25 11:28:32;;;;;;;1.58;1.48;;;6.50;68.50;;;;;;6293603;28;20099;-77
2021/01/25 11:31:33;;;;;;;3.00;2.05;;;6.80;67.70;;;;;;6293033;28;20073;-77
2021/01/25 11:34:33;;;;;;;2.40;2.20;;;7.00;66.40;;;;;;6291641;28;20451;-79
2021/01/25 11:37:34;;;;;;;1.80;1.70;;;7.20;66.60;;;;;;6275866;28;20036;-77
2021/01/25 11:40:34;;;;;;;2.58;1.90;;;7.30;65.80;;;;;;6293210;28;20048;-79
2021/01/25 11:43:36;;;;;;;2.28;1.52;;;7.40;66.20;;;;;;6259042;28;20481;-76
2021/01/25 11:46:37;;;;;;;2.45;2.05;;;7.40;66.10;;;;;;6292323;28;20509;-77
2021/01/25 11:49:37;;;;;;;2.97;2.22;;;6.60;66.70;;;;;;6291774;28;20024;-76
2021/01/25 11:52:38;;;;;;;1.83;1.70;;;6.50;67.60;;;;;;6275831;28;20047;-75
2021/01/25 11:55:40;;;;;;;2.88;2.13;;;6.60;66.50;;;;;;6293532;28;20111;-76
2021/01/25 11:58:44;;;;;;;2.17;1.77;;;7.20;68.20;;;;;;6291422;28;20028;-76
2021/01/25 12:01:44;;;;;;;2.20;1.90;;;7.50;65.70;;;;;;6275307;28;20044;-77
2021/01/25 12:04:45;;;;;;;2.17;1.70;;;7.60;64.30;;;;;;6293596;28;20028;-76
2021/01/25 12:07:46;;;;;;;1.70;1.60;;;7.50;64.40;;;;;;6290856;28;20031;-76
2021/01/25 12:10:46;;;;;;;2.30;2.10;;;5.90;83.10;;;;;;6274855;28;20036;-77
2021/01/25 12:13:47;;;;;;;3.58;2.00;;;6.00;68.00;;;;;;6292815;28;20093;-78
2021/01/25 12:16:47;;;;;;;2.70;1.90;;;5.10;69.70;;;;;;6292017;28;20055;-78
2021/01/25 12:19:48;;;;;;;1.98;1.83;;;4.80;73.30;;;;;;6292387;28;20028;-78
2021/01/25 12:22:49;;;;;;;1.83;1.73;;;4.60;74.90;;;;;;6291367;28;20135;-74
2021/01/25 12:25:49;;;;;;;3.75;2.50;;;4.60;76.60;;;;;;6292881;28;20032;-79
2021/01/25 12:28:50;;;;;;;2.00;1.90;;;4.10;77.30;;;;;;6291106;28;20436;-79
2021/01/25 12:31:51;;;;;;;2.83;1.77;;;4.70;76.50;;;;;;6290617;28;20035;-78
2021/01/25 12:34:51;;;;;;;2.15;1.95;;;4.60;76.80;;;;;;6290111;28;20024;-79
2021/01/25 12:37:54;;;;;;;2.20;2.00;;;4.80;77.50;;;;;;6273946;28;20397;-79
2021/01/25 12:40:54;;;;;;;2.10;1.98;;;4.90;75.60;;;;;;6273770;28;20071;-79
2021/01/25 12:43:55;;;;;;;1.92;1.80;;;4.40;75.30;;;;;;6291360;28;20036;-78
2021/01/25 12:46:55;;;;;;;4.78;2.13;;;4.40;76.70;;;;;;6291450;28;20032;-78
2021/01/25 12:49:56;;;;;;;2.92;2.42;;;4.30;77.20;;;;;;6274470;28;20435;-76
2021/01/25 12:52:57;;;;;;;2.88;2.20;;;5.50;90.00;;;;;;6292656;28;20070;-77
2021/01/25 12:55:57;;;;;;;2.13;1.92;;;5.40;94.20;;;;;;6292090;28;20043;-78
2021/01/25 12:58:58;;;;;;;2.10;2.00;;;5.50;93.50;;;;;;6290803;28;20070;-78
2021/01/25 13:01:58;;;;;;;1.88;1.77;;;5.60;85.40;;;;;;6290834;28;20052;-78
2021/01/25 13:04:59;;;;;;;2.95;2.50;;;5.20;93.50;;;;;;6274227;28;20016;-75
2021/01/25 13:08:00;;;;;;;2.20;1.90;;;4.70;86.40;;;;;;6291736;28;20024;-77
2021/01/25 13:11:00;;;;;;;2.67;2.05;;;4.70;93.60;;;;;;6273835;28;20025;-79
2021/01/25 13:14:01;;;;;;;2.03;1.90;;;4.50;85.10;;;;;;6290816;28;20064;-76
2021/01/25 13:17:01;;;;;;;2.50;2.00;;;4.20;90.50;;;;;;6292757;28;20367;-77
2021/01/25 13:20:04;;;;;;;3.83;2.60;;;4.00;83.20;;;;;;6295526;28;20044;-78
2021/01/25 13:23:04;;;;;;;2.47;2.10;;;4.00;94.40;;;;;;6295402;28;20031;-78
2021/01/25 13:26:05;;;;;;;2.03;1.80;;;;;;;;;;6297095;28;20028;-77
2021/01/25 13:29:06;;;;;;;1.98;1.85;;;4.30;94.30;;;;;;6294797;28;20036;-77
2021/01/25 13:32:07;;;;;;;3.60;1.90;;;;;;;;;;6296756;28;20077;-77
2021/01/25 13:35:11;;;;;;;3.25;2.13;;;4.00;94.30;;;;;;6296412;28;20024;-76
2021/01/25 13:38:12;;;;;;;2.28;2.08;;;;;;;;;;6296544;28;20086;-77
2021/01/25 13:41:13;;;;;;;1.85;1.70;;;4.50;94.20;;;;;;6295948;28;20049;-78
2021/01/25 13:44:13;;;;;;;2.17;1.98;;;4.50;83.60;;;;;;6296734;28;20035;-78
2021/01/25 13:47:14;;;;;;;5.05;1.80;;;4.80;83.00;;;;;;6295255;28;20447;-76
2021/01/25 13:50:15;;;;;;;2.13;2.00;;;4.90;82.00;;;;;;6296232;28;20040;-76
2021/01/25 13:53:15;;;;;;;2.97;1.80;;;4.60;70.60;;;;;;6294908;28;20070;-77
2021/01/25 13:56:16;;;;;;;3.05;1.80;;;4.40;71.00;;;;;;6295737;28;20029;-76
2021/01/25 13:59:17;;;;;;;2.75;2.15;;;4.30;71.60;;;;;;6296201;28;20031;-77
2021/01/25 14:02:17;;;;;;;1.55;1.45;;;5.30;71.70;;;;;;6294290;28;20073;-76
2021/01/25 14:05:18;;;;;;;2.85;2.10;;;4.90;72.20;;;;;;6294817;28;20024;-77
2021/01/25 14:08:19;;;;;;;2.30;2.10;;;3.90;72.80;;;;;;6294332;28;20147;-78
2021/01/25 14:11:23;;;;;;;2.55;2.10;;;3.90;73.20;;;;;;6295391;28;20443;-77
2021/01/25 14:14:24;;;;;;;3.22;2.40;;;3.60;74.40;;;;;;6294635;28;20378;-78
2021/01/25 14:17:25;;;;;;;4.30;2.65;;;3.60;75.30;;;;;;6277964;28;20036;-77
2021/01/25 14:20:25;;;;;;;2.53;2.30;;;3.60;76.20;;;;;;6277827;28;20374;-78
2021/01/25 14:23:26;;;;;;;2.00;1.80;;;3.30;76.30;;;;;;6293960;28;20024;-77
2021/01/25 14:26:26;;;;;;;2.22;2.03;;;3.80;76.40;;;;;;6294389;28;20451;-78
2021/01/25 14:29:27;;;;;;;2.58;2.38;;;3.20;77.20;;;;;;6293435;28;20032;-78
2021/01/25 14:32:28;;;;;;;2.70;2.20;;;3.20;77.60;;;;;;6277369;28;20074;-77
2021/01/25 14:35:28;;;;;;;2.28;2.08;;;5.00;78.10;;;;;;6277060;28;20029;-76
2021/01/25 14:38:29;;;;;;;2.10;2.00;;;3.10;77.50;;;;;;6293979;28;20025;-79
2021/01/25 14:41:29;;;;;;;3.17;2.83;;;3.00;78.00;;;;;;6293426;28;20076;-80
2021/01/25 14:44:30;;;;;;;4.20;2.20;;;3.00;78.60;;;;;;6277250;28;20028;-78
2021/01/25 14:47:31;;;;;;;2.55;2.30;;;3.10;78.80;;;;;;6293226;28;20104;-78
2021/01/25 14:50:32;;;;;;;2.33;2.10;;;2.90;78.70;;;;;;6293545;28;20461;-78
2021/01/25 14:53:32;;;;;;;2.53;2.33;;;4.20;79.80;;;;;;6293206;28;20182;-78
2021/01/25 14:56:33;;;;;;;2.33;2.13;;;2.90;79.40;;;;;;6293081;28;20029;-78
2021/01/25 14:59:33;;;;;;;3.13;2.50;;;2.90;80.10;;;;;;6293960;28;20028;-78
2021/01/25 15:02:34;;;;;;;3.53;2.33;;;2.80;80.90;;;;;;6293839;28;20143;-78
2021/01/25 15:05:35;;;;;;;3.85;3.00;;;2.80;81.40;;;;;;6277101;28;20058;-79
2021/01/25 15:08:35;;;;;;;3.03;2.70;;;3.50;84.30;;;;;;6276819;28;20111;-78
2021/01/25 15:11:36;;;;;;;7.97;3.03;;;3.30;87.20;;;;;;6260052;28;20170;-79
2021/01/25 15:14:36;;;;;;;5.13;3.33;;;2.90;88.10;;;;;;6276957;28;20020;-79
2021/01/25 15:17:37;;;;;;;6.13;3.97;;;4.70;89.70;;;;;;6276625;28;20636;-78
2021/01/25 15:20:38;;;;;;;6.53;5.68;;;2.50;89.50;;;;;;6260434;28;20115;-79
2021/01/25 15:23:39;;;;;;;4.93;3.47;;;3.00;89.90;;;;;;6292967;28;20063;-78
2021/01/25 15:26:39;;;;;;;4.78;3.80;;;3.10;90.00;;;;;;6287683;28;20020;-80
2021/01/25 15:29:40;;;;;;;9.18;5.40;;;2.30;89.80;;;;;;6274928;28;20479;-78
2021/01/25 15:32:40;;;;;;;4.40;3.67;;;2.80;90.10;;;;;;6293813;28;20025;-77
2021/01/25 15:35:41;;;;;;;4.35;3.60;;;2.40;90.00;;;;;;6292508;28;20078;-78
2021/01/25 15:38:42;;;;;;;6.70;3.97;;;2.40;89.70;;;;;;6292644;28;20107;-78
2021/01/25 15:41:42;;;;;;;7.22;3.35;;;2.60;90.10;;;;;;6293107;28;20063;-77
2021/01/25 15:44:43;;;;;;;5.05;3.50;;;2.30;90.10;;;;;;6275871;28;20382;-78
2021/01/25 15:47:44;;;;;;;6.95;3.95;;;2.30;90.40;;;;;;6293375;28;20021;-77
2021/01/25 15:50:45;;;;;;;8.23;5.65;;;2.30;90.00;;;;;;6291781;28;20036;-78
2021/01/25 15:53:45;;;;;;;15.27;7.88;;;2.50;90.10;;;;;;6275501;28;20020;-78
2021/01/25 15:56:46;;;;;;;10.73;5.90;;;3.30;90.40;;;;;;6291957;28;20033;-78
2021/01/25 15:59:47;;;;;;;12.00;5.95;;;2.40;90.40;;;;;;6293472;28;20035;-78